sensor_id;sensor_type;location;lat;lon;timestamp;temperature;humidity
16521;DHT22;8373;48.110;11.522;2022-11-20T00:00:05;8.50;83.00
16521;DHT22;8373;48.110;11.522;2022-11-20T00:02:32;8.60;82.70
16521;DHT22;8373;48.110;11.522;2022-11-20T00:04:59;8.50;82.20
16521;DHT22;8373;48.110;11.522;2022-11-20T00:07:26;8.50;82.20
16521;DHT22;8373;48.110;11.522;2022-11-20T00:09:54;8.60;82.30
16521;DHT22;8373;48.110;11.522;2022-11-20T00:12:21;8.50;82.00
16521;DHT22;8373;48.110;11.522;2022-11-20T00:14:47;8.50;82.00
16521;DHT22;8373;48.110;11.522;2022-11-20T00:17:14;8.60;82.50
16521;DHT22;8373;48.110;11.522;2022-11-20T00:19:41;8.50;82.10
16521;DHT22;8373;48.110;11.522;2022-11-20T00:22:07;8.40;82.30
16521;DHT22;8373;48.110;11.522;2022-11-20T00:24:34;8.30;82.70
16521;DHT22;8373;48.110;11.522;2022-11-20T00:27:02;8.30;83.00
16521;DHT22;8373;48.110;11.522;2022-11-20T00:29:29;8.30;83.10
16521;DHT22;8373;48.110;11.522;2022-11-20T00:31:56;8.30;83.10
16521;DHT22;8373;48.110;11.522;2022-11-20T00:34:22;8.30;83.10
16521;DHT22;8373;48.110;11.522;2022-11-20T00:36:49;8.40;83.20
16521;DHT22;8373;48.110;11.522;2022-11-20T00:39:16;8.40;83.00
16521;DHT22;8373;48.110;11.522;2022-11-20T00:41:42;8.40;82.80
16521;DHT22;8373;48.110;11.522;2022-11-20T00:44:11;8.30;82.60
16521;DHT22;8373;48.110;11.522;2022-11-20T00:46:37;8.30;82.90
16521;DHT22;8373;48.110;11.522;2022-11-20T00:49:04;8.40;83.30
16521;DHT22;8373;48.110;11.522;2022-11-20T00:51:31;8.50;83.20
16521;DHT22;8373;48.110;11.522;2022-11-20T00:53:57;8.50;83.30
16521;DHT22;8373;48.110;11.522;2022-11-20T00:56:25;8.50;82.50
16521;DHT22;8373;48.110;11.522;2022-11-20T00:58:52;8.30;82.10
16521;DHT22;8373;48.110;11.522;2022-11-20T01:01:20;8.30;82.60
16521;DHT22;8373;48.110;11.522;2022-11-20T01:03:49;8.40;82.80
16521;DHT22;8373;48.110;11.522;2022-11-20T01:06:17;8.40;82.60
16521;DHT22;8373;48.110;11.522;2022-11-20T01:08:45;8.50;82.40
16521;DHT22;8373;48.110;11.522;2022-11-20T01:11:13;8.50;82.20
16521;DHT22;8373;48.110;11.522;2022-11-20T01:13:40;8.50;82.00
16521;DHT22;8373;48.110;11.522;2022-11-20T01:16:08;8.40;81.80
16521;DHT22;8373;48.110;11.522;2022-11-20T01:18:37;8.30;82.20
16521;DHT22;8373;48.110;11.522;2022-11-20T01:21:05;8.30;82.40
16521;DHT22;8373;48.110;11.522;2022-11-20T01:23:32;8.30;82.20
16521;DHT22;8373;48.110;11.522;2022-11-20T01:26:00;8.30;82.40
16521;DHT22;8373;48.110;11.522;2022-11-20T01:28:28;8.30;82.30
16521;DHT22;8373;48.110;11.522;2022-11-20T01:30:54;8.30;82.50
16521;DHT22;8373;48.110;11.522;2022-11-20T01:33:21;8.30;82.80
16521;DHT22;8373;48.110;11.522;2022-11-20T01:35:49;8.30;82.60
16521;DHT22;8373;48.110;11.522;2022-11-20T01:38:16;8.30;82.30
16521;DHT22;8373;48.110;11.522;2022-11-20T01:40:43;8.30;82.50
16521;DHT22;8373;48.110;11.522;2022-11-20T01:43:12;8.30;82.50
16521;DHT22;8373;48.110;11.522;2022-11-20T01:45:54;8.30;82.30
16521;DHT22;8373;48.110;11.522;2022-11-20T01:48:22;8.30;82.50
16521;DHT22;8373;48.110;11.522;2022-11-20T01:50:52;8.40;82.50
16521;DHT22;8373;48.110;11.522;2022-11-20T01:53:20;8.50;82.40
16521;DHT22;8373;48.110;11.522;2022-11-20T01:55:48;8.40;81.70
16521;DHT22;8373;48.110;11.522;2022-11-20T01:58:16;8.50;82.00
16521;DHT22;8373;48.110;11.522;2022-11-20T02:00:45;8.40;81.60
16521;DHT22;8373;48.110;11.522;2022-11-20T02:03:12;8.40;81.80
16521;DHT22;8373;48.110;11.522;2022-11-20T02:05:41;8.30;81.70
16521;DHT22;8373;48.110;11.522;2022-11-20T02:08:11;8.50;82.10
16521;DHT22;8373;48.110;11.522;2022-11-20T02:10:39;8.50;81.70
16521;DHT22;8373;48.110;11.522;2022-11-20T02:13:05;8.60;81.70
16521;DHT22;8373;48.110;11.522;2022-11-20T02:15:49;8.60;81.30
16521;DHT22;8373;48.110;11.522;2022-11-20T02:18:17;8.40;80.70
16521;DHT22;8373;48.110;11.522;2022-11-20T02:20:45;8.40;81.20
16521;DHT22;8373;48.110;11.522;2022-11-20T02:23:15;8.40;81.40
16521;DHT22;8373;48.110;11.522;2022-11-20T02:25:45;8.30;81.60
16521;DHT22;8373;48.110;11.522;2022-11-20T02:28:13;8.40;81.70
16521;DHT22;8373;48.110;11.522;2022-11-20T02:30:41;8.30;81.30
16521;DHT22;8373;48.110;11.522;2022-11-20T02:33:08;8.20;81.80
16521;DHT22;8373;48.110;11.522;2022-11-20T02:35:44;8.20;81.90
16521;DHT22;8373;48.110;11.522;2022-11-20T02:38:11;8.00;81.70
16521;DHT22;8373;48.110;11.522;2022-11-20T02:40:37;8.10;82.30
16521;DHT22;8373;48.110;11.522;2022-11-20T02:43:06;8.10;82.60
16521;DHT22;8373;48.110;11.522;2022-11-20T02:45:32;8.20;82.70
16521;DHT22;8373;48.110;11.522;2022-11-20T02:47:59;8.10;82.20
16521;DHT22;8373;48.110;11.522;2022-11-20T02:50:26;8.00;82.00
16521;DHT22;8373;48.110;11.522;2022-11-20T02:52:53;8.10;82.30
16521;DHT22;8373;48.110;11.522;2022-11-20T02:55:19;8.00;81.90
16521;DHT22;8373;48.110;11.522;2022-11-20T02:57:46;8.10;82.30
16521;DHT22;8373;48.110;11.522;2022-11-20T03:00:15;8.10;82.20
16521;DHT22;8373;48.110;11.522;2022-11-20T03:02:41;8.10;82.20
16521;DHT22;8373;48.110;11.522;2022-11-20T03:05:08;8.10;81.90
16521;DHT22;8373;48.110;11.522;2022-11-20T03:07:35;8.20;82.00
16521;DHT22;8373;48.110;11.522;2022-11-20T03:10:02;8.20;81.70
16521;DHT22;8373;48.110;11.522;2022-11-20T03:12:29;8.20;81.50
16521;DHT22;8373;48.110;11.522;2022-11-20T03:14:56;8.20;81.50
16521;DHT22;8373;48.110;11.522;2022-11-20T03:17:24;8.20;81.50
16521;DHT22;8373;48.110;11.522;2022-11-20T03:19:50;8.10;81.30
16521;DHT22;8373;48.110;11.522;2022-11-20T03:22:17;8.10;81.50
16521;DHT22;8373;48.110;11.522;2022-11-20T03:24:44;8.10;81.50
16521;DHT22;8373;48.110;11.522;2022-11-20T03:27:11;8.10;81.20
16521;DHT22;8373;48.110;11.522;2022-11-20T03:29:38;8.10;81.40
16521;DHT22;8373;48.110;11.522;2022-11-20T03:32:05;8.10;81.10
16521;DHT22;8373;48.110;11.522;2022-11-20T03:34:33;8.10;81.10
16521;DHT22;8373;48.110;11.522;2022-11-20T03:36:59;8.10;80.30
16521;DHT22;8373;48.110;11.522;2022-11-20T03:39:26;8.10;81.10
16521;DHT22;8373;48.110;11.522;2022-11-20T03:41:53;8.10;81.40
16521;DHT22;8373;48.110;11.522;2022-11-20T03:44:20;8.10;80.50
16521;DHT22;8373;48.110;11.522;2022-11-20T03:46:47;8.10;80.70
16521;DHT22;8373;48.110;11.522;2022-11-20T03:49:14;8.00;80.40
16521;DHT22;8373;48.110;11.522;2022-11-20T03:51:42;7.90;80.60
16521;DHT22;8373;48.110;11.522;2022-11-20T03:54:09;8.00;81.10
16521;DHT22;8373;48.110;11.522;2022-11-20T03:56:36;8.00;81.00
16521;DHT22;8373;48.110;11.522;2022-11-20T03:59:03;7.90;80.60
16521;DHT22;8373;48.110;11.522;2022-11-20T04:01:31;8.00;81.10
16521;DHT22;8373;48.110;11.522;2022-11-20T04:03:58;7.90;80.80
16521;DHT22;8373;48.110;11.522;2022-11-20T04:06:25;7.80;80.50
16521;DHT22;8373;48.110;11.522;2022-11-20T04:08:55;7.80;80.80
16521;DHT22;8373;48.110;11.522;2022-11-20T04:11:22;7.90;81.10
16521;DHT22;8373;48.110;11.522;2022-11-20T04:13:49;8.00;81.10
16521;DHT22;8373;48.110;11.522;2022-11-20T04:16:17;7.90;80.40
16521;DHT22;8373;48.110;11.522;2022-11-20T04:18:43;7.90;80.30
16521;DHT22;8373;48.110;11.522;2022-11-20T04:21:11;7.90;80.40
16521;DHT22;8373;48.110;11.522;2022-11-20T04:23:38;8.00;81.50
16521;DHT22;8373;48.110;11.522;2022-11-20T04:26:07;8.00;80.50
16521;DHT22;8373;48.110;11.522;2022-11-20T04:28:34;8.00;80.10
16521;DHT22;8373;48.110;11.522;2022-11-20T04:31:01;8.10;80.10
16521;DHT22;8373;48.110;11.522;2022-11-20T04:33:28;8.20;79.80
16521;DHT22;8373;48.110;11.522;2022-11-20T04:35:55;8.20;79.80
16521;DHT22;8373;48.110;11.522;2022-11-20T04:38:26;8.20;79.10
16521;DHT22;8373;48.110;11.522;2022-11-20T04:40:55;8.20;79.10
16521;DHT22;8373;48.110;11.522;2022-11-20T04:43:23;8.30;79.20
16521;DHT22;8373;48.110;11.522;2022-11-20T04:45:50;8.20;78.80
16521;DHT22;8373;48.110;11.522;2022-11-20T04:48:17;8.10;78.70
16521;DHT22;8373;48.110;11.522;2022-11-20T04:50:43;8.20;79.30
16521;DHT22;8373;48.110;11.522;2022-11-20T04:53:10;8.20;79.30
16521;DHT22;8373;48.110;11.522;2022-11-20T04:55:37;8.10;79.10
16521;DHT22;8373;48.110;11.522;2022-11-20T04:58:03;8.10;79.30
16521;DHT22;8373;48.110;11.522;2022-11-20T05:00:32;8.10;79.50
16521;DHT22;8373;48.110;11.522;2022-11-20T05:02:58;8.00;79.60
16521;DHT22;8373;48.110;11.522;2022-11-20T05:05:25;8.00;79.60
16521;DHT22;8373;48.110;11.522;2022-11-20T05:07:52;8.00;79.90
16521;DHT22;8373;48.110;11.522;2022-11-20T05:10:18;8.00;79.80
16521;DHT22;8373;48.110;11.522;2022-11-20T05:12:45;8.00;79.70
16521;DHT22;8373;48.110;11.522;2022-11-20T05:15:12;7.90;79.50
16521;DHT22;8373;48.110;11.522;2022-11-20T05:17:40;7.70;79.70
16521;DHT22;8373;48.110;11.522;2022-11-20T05:20:07;7.60;80.40
16521;DHT22;8373;48.110;11.522;2022-11-20T05:22:34;7.70;80.80
16521;DHT22;8373;48.110;11.522;2022-11-20T05:25:01;7.80;80.60
16521;DHT22;8373;48.110;11.522;2022-11-20T05:27:28;7.90;80.60
16521;DHT22;8373;48.110;11.522;2022-11-20T05:29:54;7.90;80.30
16521;DHT22;8373;48.110;11.522;2022-11-20T05:32:21;8.00;80.20
16521;DHT22;8373;48.110;11.522;2022-11-20T05:34:52;8.00;79.90
16521;DHT22;8373;48.110;11.522;2022-11-20T05:37:18;7.90;79.50
16521;DHT22;8373;48.110;11.522;2022-11-20T05:39:45;7.90;79.50
16521;DHT22;8373;48.110;11.522;2022-11-20T05:42:12;7.90;79.50
16521;DHT22;8373;48.110;11.522;2022-11-20T05:44:57;7.90;79.50
16521;DHT22;8373;48.110;11.522;2022-11-20T05:47:23;7.80;79.70
16521;DHT22;8373;48.110;11.522;2022-11-20T05:49:52;7.70;80.00
16521;DHT22;8373;48.110;11.522;2022-11-20T05:52:18;7.70;80.00
16521;DHT22;8373;48.110;11.522;2022-11-20T05:54:45;7.80;80.50
16521;DHT22;8373;48.110;11.522;2022-11-20T05:57:12;7.80;80.10
16521;DHT22;8373;48.110;11.522;2022-11-20T05:59:39;7.90;79.90
16521;DHT22;8373;48.110;11.522;2022-11-20T06:02:05;7.80;79.40
16521;DHT22;8373;48.110;11.522;2022-11-20T06:04:32;7.80;79.20
16521;DHT22;8373;48.110;11.522;2022-11-20T06:07:00;7.70;79.20
16521;DHT22;8373;48.110;11.522;2022-11-20T06:09:27;7.50;79.20
16521;DHT22;8373;48.110;11.522;2022-11-20T06:11:53;7.40;79.70
16521;DHT22;8373;48.110;11.522;2022-11-20T06:14:20;7.50;80.00
16521;DHT22;8373;48.110;11.522;2022-11-20T06:16:47;7.50;79.70
16521;DHT22;8373;48.110;11.522;2022-11-20T06:19:14;7.50;79.10
16521;DHT22;8373;48.110;11.522;2022-11-20T06:21:41;7.50;79.00
16521;DHT22;8373;48.110;11.522;2022-11-20T06:24:10;7.50;78.80
16521;DHT22;8373;48.110;11.522;2022-11-20T06:26:36;7.60;78.90
16521;DHT22;8373;48.110;11.522;2022-11-20T06:29:03;7.60;78.20
16521;DHT22;8373;48.110;11.522;2022-11-20T06:31:30;7.50;77.70
16521;DHT22;8373;48.110;11.522;2022-11-20T06:33:58;7.50;77.60
16521;DHT22;8373;48.110;11.522;2022-11-20T06:36:24;7.50;77.50
16521;DHT22;8373;48.110;11.522;2022-11-20T06:38:51;7.50;77.40
16521;DHT22;8373;48.110;11.522;2022-11-20T06:41:20;7.40;77.10
16521;DHT22;8373;48.110;11.522;2022-11-20T06:43:47;7.40;76.90
16521;DHT22;8373;48.110;11.522;2022-11-20T06:46:14;7.40;76.40
16521;DHT22;8373;48.110;11.522;2022-11-20T06:48:42;7.50;76.40
16521;DHT22;8373;48.110;11.522;2022-11-20T06:51:09;7.40;75.90
16521;DHT22;8373;48.110;11.522;2022-11-20T06:53:36;7.50;75.80
16521;DHT22;8373;48.110;11.522;2022-11-20T06:56:03;7.50;75.70
16521;DHT22;8373;48.110;11.522;2022-11-20T06:58:32;7.40;75.50
16521;DHT22;8373;48.110;11.522;2022-11-20T07:00:59;7.30;75.40
16521;DHT22;8373;48.110;11.522;2022-11-20T07:03:26;7.30;75.90
16521;DHT22;8373;48.110;11.522;2022-11-20T07:05:54;7.30;76.30
16521;DHT22;8373;48.110;11.522;2022-11-20T07:08:20;7.40;76.50
16521;DHT22;8373;48.110;11.522;2022-11-20T07:10:47;7.40;76.30
16521;DHT22;8373;48.110;11.522;2022-11-20T07:13:14;7.30;76.30
16521;DHT22;8373;48.110;11.522;2022-11-20T07:15:42;7.20;77.10
16521;DHT22;8373;48.110;11.522;2022-11-20T07:18:09;7.20;77.90
16521;DHT22;8373;48.110;11.522;2022-11-20T07:20:35;7.20;78.50
16521;DHT22;8373;48.110;11.522;2022-11-20T07:23:02;7.20;78.80
16521;DHT22;8373;48.110;11.522;2022-11-20T07:25:29;7.30;79.10
16521;DHT22;8373;48.110;11.522;2022-11-20T07:27:56;7.40;79.00
16521;DHT22;8373;48.110;11.522;2022-11-20T07:30:23;7.30;78.90
16521;DHT22;8373;48.110;11.522;2022-11-20T07:32:52;7.40;79.30
16521;DHT22;8373;48.110;11.522;2022-11-20T07:35:19;7.30;79.50
16521;DHT22;8373;48.110;11.522;2022-11-20T07:37:46;7.40;79.60
16521;DHT22;8373;48.110;11.522;2022-11-20T07:40:14;7.50;79.40
16521;DHT22;8373;48.110;11.522;2022-11-20T07:42:46;7.40;79.10
16521;DHT22;8373;48.110;11.522;2022-11-20T07:45:13;7.40;79.00
16521;DHT22;8373;48.110;11.522;2022-11-20T07:47:40;7.40;79.20
16521;DHT22;8373;48.110;11.522;2022-11-20T07:50:09;7.30;79.20
16521;DHT22;8373;48.110;11.522;2022-11-20T07:52:35;7.20;79.00
16521;DHT22;8373;48.110;11.522;2022-11-20T07:55:02;7.30;79.40
16521;DHT22;8373;48.110;11.522;2022-11-20T07:57:29;7.30;79.20
16521;DHT22;8373;48.110;11.522;2022-11-20T07:59:56;7.30;79.20
16521;DHT22;8373;48.110;11.522;2022-11-20T08:02:22;7.30;79.10
16521;DHT22;8373;48.110;11.522;2022-11-20T08:04:49;7.40;79.00
16521;DHT22;8373;48.110;11.522;2022-11-20T08:07:17;7.30;78.50
16521;DHT22;8373;48.110;11.522;2022-11-20T08:09:44;7.40;78.60
16521;DHT22;8373;48.110;11.522;2022-11-20T08:12:15;7.50;78.40
16521;DHT22;8373;48.110;11.522;2022-11-20T08:15:00;7.60;78.10
16521;DHT22;8373;48.110;11.522;2022-11-20T08:17:27;7.70;77.80
16521;DHT22;8373;48.110;11.522;2022-11-20T08:19:54;7.70;77.00
16521;DHT22;8373;48.110;11.522;2022-11-20T08:22:22;7.70;76.70
16521;DHT22;8373;48.110;11.522;2022-11-20T08:24:50;7.70;76.50
16521;DHT22;8373;48.110;11.522;2022-11-20T08:27:16;7.80;76.30
16521;DHT22;8373;48.110;11.522;2022-11-20T08:29:43;7.80;75.90
16521;DHT22;8373;48.110;11.522;2022-11-20T08:32:10;7.70;75.80
16521;DHT22;8373;48.110;11.522;2022-11-20T08:34:37;7.70;75.90
16521;DHT22;8373;48.110;11.522;2022-11-20T08:37:03;7.80;76.00
16521;DHT22;8373;48.110;11.522;2022-11-20T08:39:31;7.90;76.10
16521;DHT22;8373;48.110;11.522;2022-11-20T08:41:58;8.10;76.10
16521;DHT22;8373;48.110;11.522;2022-11-20T08:44:25;8.10;74.90
16521;DHT22;8373;48.110;11.522;2022-11-20T08:46:52;8.00;74.20
16521;DHT22;8373;48.110;11.522;2022-11-20T08:49:19;8.00;74.50
16521;DHT22;8373;48.110;11.522;2022-11-20T08:51:47;8.10;74.30
16521;DHT22;8373;48.110;11.522;2022-11-20T08:54:17;8.10;73.80
16521;DHT22;8373;48.110;11.522;2022-11-20T08:56:46;8.20;73.90
16521;DHT22;8373;48.110;11.522;2022-11-20T08:59:13;8.10;73.30
16521;DHT22;8373;48.110;11.522;2022-11-20T09:01:40;8.10;73.60
16521;DHT22;8373;48.110;11.522;2022-11-20T09:04:06;8.10;73.80
16521;DHT22;8373;48.110;11.522;2022-11-20T09:06:33;8.20;74.00
16521;DHT22;8373;48.110;11.522;2022-11-20T09:09:00;8.30;73.40
16521;DHT22;8373;48.110;11.522;2022-11-20T09:11:27;8.40;72.70
16521;DHT22;8373;48.110;11.522;2022-11-20T09:13:55;8.30;72.00
16521;DHT22;8373;48.110;11.522;2022-11-20T09:16:22;8.40;71.70
16521;DHT22;8373;48.110;11.522;2022-11-20T09:18:50;8.40;71.80
16521;DHT22;8373;48.110;11.522;2022-11-20T09:21:17;8.40;71.90
16521;DHT22;8373;48.110;11.522;2022-11-20T09:23:43;8.40;71.50
16521;DHT22;8373;48.110;11.522;2022-11-20T09:26:11;8.50;71.40
16521;DHT22;8373;48.110;11.522;2022-11-20T09:28:39;8.50;70.60
16521;DHT22;8373;48.110;11.522;2022-11-20T09:31:07;8.60;70.70
16521;DHT22;8373;48.110;11.522;2022-11-20T09:33:35;8.60;70.00
16521;DHT22;8373;48.110;11.522;2022-11-20T09:36:02;8.50;69.20
16521;DHT22;8373;48.110;11.522;2022-11-20T09:38:29;8.60;69.60
16521;DHT22;8373;48.110;11.522;2022-11-20T09:40:57;8.60;69.20
16521;DHT22;8373;48.110;11.522;2022-11-20T09:43:27;8.70;69.20
16521;DHT22;8373;48.110;11.522;2022-11-20T09:46:02;8.80;68.80
16521;DHT22;8373;48.110;11.522;2022-11-20T09:48:36;8.70;68.00
16521;DHT22;8373;48.110;11.522;2022-11-20T09:51:09;8.70;68.30
16521;DHT22;8373;48.110;11.522;2022-11-20T09:53:42;8.50;68.10
16521;DHT22;8373;48.110;11.522;2022-11-20T09:56:12;8.70;68.70
16521;DHT22;8373;48.110;11.522;2022-11-20T09:58:40;9.40;68.60
16521;DHT22;8373;48.110;11.522;2022-11-20T10:01:10;12.20;64.70
16521;DHT22;8373;48.110;11.522;2022-11-20T10:03:39;14.10;56.60
16521;DHT22;8373;48.110;11.522;2022-11-20T10:06:08;14.90;52.50
16521;DHT22;8373;48.110;11.522;2022-11-20T10:08:39;14.70;50.30
16521;DHT22;8373;48.110;11.522;2022-11-20T10:11:08;14.40;50.50
16521;DHT22;8373;48.110;11.522;2022-11-20T10:13:39;14.10;49.80
16521;DHT22;8373;48.110;11.522;2022-11-20T10:16:13;13.50;50.60
16521;DHT22;8373;48.110;11.522;2022-11-20T10:18:45;13.60;51.70
16521;DHT22;8373;48.110;11.522;2022-11-20T10:21:23;13.90;51.50
16521;DHT22;8373;48.110;11.522;2022-11-20T10:24:23;14.20;50.90
16521;DHT22;8373;48.110;11.522;2022-11-20T10:26:53;14.00;50.30
16521;DHT22;8373;48.110;11.522;2022-11-20T10:29:21;13.90;50.50
16521;DHT22;8373;48.110;11.522;2022-11-20T10:31:54;14.20;51.00
16521;DHT22;8373;48.110;11.522;2022-11-20T10:34:24;14.20;50.20
16521;DHT22;8373;48.110;11.522;2022-11-20T10:36:53;14.40;50.60
16521;DHT22;8373;48.110;11.522;2022-11-20T10:39:23;14.80;50.00
16521;DHT22;8373;48.110;11.522;2022-11-20T10:41:52;14.90;48.90
16521;DHT22;8373;48.110;11.522;2022-11-20T10:44:19;14.50;48.60
16521;DHT22;8373;48.110;11.522;2022-11-20T10:47:11;14.00;49.00
16521;DHT22;8373;48.110;11.522;2022-11-20T10:49:40;13.30;49.60
16521;DHT22;8373;48.110;11.522;2022-11-20T10:52:09;12.90;50.80
16521;DHT22;8373;48.110;11.522;2022-11-20T10:54:41;12.60;51.80
16521;DHT22;8373;48.110;11.522;2022-11-20T10:57:12;12.00;52.90
16521;DHT22;8373;48.110;11.522;2022-11-20T10:59:46;11.60;53.80
16521;DHT22;8373;48.110;11.522;2022-11-20T11:02:17;11.30;55.00
16521;DHT22;8373;48.110;11.522;2022-11-20T11:04:47;11.00;55.80
16521;DHT22;8373;48.110;11.522;2022-11-20T11:07:15;10.80;56.50
16521;DHT22;8373;48.110;11.522;2022-11-20T11:09:43;10.40;57.30
16521;DHT22;8373;48.110;11.522;2022-11-20T11:12:10;10.20;58.10
16521;DHT22;8373;48.110;11.522;2022-11-20T11:14:45;10.00;59.00
16521;DHT22;8373;48.110;11.522;2022-11-20T11:17:20;9.70;60.70
16521;DHT22;8373;48.110;11.522;2022-11-20T11:19:57;9.70;61.90
16521;DHT22;8373;48.110;11.522;2022-11-20T11:22:24;9.70;62.40
16521;DHT22;8373;48.110;11.522;2022-11-20T11:24:51;9.80;62.30
16521;DHT22;8373;48.110;11.522;2022-11-20T11:27:18;10.00;61.50
16521;DHT22;8373;48.110;11.522;2022-11-20T11:29:45;10.00;61.00
16521;DHT22;8373;48.110;11.522;2022-11-20T11:32:12;10.10;61.30
16521;DHT22;8373;48.110;11.522;2022-11-20T11:34:39;10.10;61.20
16521;DHT22;8373;48.110;11.522;2022-11-20T11:37:11;10.10;61.20
16521;DHT22;8373;48.110;11.522;2022-11-20T11:39:39;10.20;61.30
16521;DHT22;8373;48.110;11.522;2022-11-20T11:42:07;10.40;61.40
16521;DHT22;8373;48.110;11.522;2022-11-20T11:44:37;10.60;60.90
16521;DHT22;8373;48.110;11.522;2022-11-20T11:47:29;10.60;59.80
16521;DHT22;8373;48.110;11.522;2022-11-20T11:50:13;10.70;59.30
16521;DHT22;8373;48.110;11.522;2022-11-20T11:52:42;11.00;59.50
16521;DHT22;8373;48.110;11.522;2022-11-20T11:55:14;11.40;60.70
16521;DHT22;8373;48.110;11.522;2022-11-20T11:57:46;11.60;58.70
16521;DHT22;8373;48.110;11.522;2022-11-20T12:00:16;11.70;58.20
16521;DHT22;8373;48.110;11.522;2022-11-20T12:02:53;12.00;57.40
16521;DHT22;8373;48.110;11.522;2022-11-20T12:05:24;11.70;56.80
16521;DHT22;8373;48.110;11.522;2022-11-20T12:07:57;11.40;57.20
16521;DHT22;8373;48.110;11.522;2022-11-20T12:10:39;11.10;57.90
16521;DHT22;8373;48.110;11.522;2022-11-20T12:13:18;10.90;58.50
16521;DHT22;8373;48.110;11.522;2022-11-20T12:15:47;10.60;59.70
16521;DHT22;8373;48.110;11.522;2022-11-20T12:18:16;10.40;61.40
16521;DHT22;8373;48.110;11.522;2022-11-20T12:20:51;10.30;62.30
16521;DHT22;8373;48.110;11.522;2022-11-20T12:23:27;10.10;62.90
16521;DHT22;8373;48.110;11.522;2022-11-20T12:25:57;10.00;63.60
16521;DHT22;8373;48.110;11.522;2022-11-20T12:28:38;9.90;65.40
16521;DHT22;8373;48.110;11.522;2022-11-20T12:31:20;9.80;66.00
16521;DHT22;8373;48.110;11.522;2022-11-20T12:34:08;9.80;67.10
16521;DHT22;8373;48.110;11.522;2022-11-20T12:36:45;9.80;67.40
16521;DHT22;8373;48.110;11.522;2022-11-20T12:39:35;9.70;68.30
16521;DHT22;8373;48.110;11.522;2022-11-20T12:42:33;9.60;68.80
16521;DHT22;8373;48.110;11.522;2022-11-20T12:48:27;9.40;69.10
16521;DHT22;8373;48.110;11.522;2022-11-20T12:57:00;9.20;70.30
16521;DHT22;8373;48.110;11.522;2022-11-20T12:59:41;9.10;71.60
16521;DHT22;8373;48.110;11.522;2022-11-20T13:02:22;9.00;71.10
16521;DHT22;8373;48.110;11.522;2022-11-20T13:05:05;9.10;71.90
16521;DHT22;8373;48.110;11.522;2022-11-20T13:07:36;9.00;71.50
16521;DHT22;8373;48.110;11.522;2022-11-20T13:10:05;8.90;71.90
16521;DHT22;8373;48.110;11.522;2022-11-20T13:12:45;8.90;72.50
16521;DHT22;8373;48.110;11.522;2022-11-20T13:15:22;8.80;72.90
16521;DHT22;8373;48.110;11.522;2022-11-20T13:17:57;8.80;73.50
16521;DHT22;8373;48.110;11.522;2022-11-20T13:20:25;8.90;74.30
16521;DHT22;8373;48.110;11.522;2022-11-20T13:22:54;8.70;74.50
16521;DHT22;8373;48.110;11.522;2022-11-20T13:25:23;8.60;75.40
16521;DHT22;8373;48.110;11.522;2022-11-20T13:27:53;8.50;76.30
16521;DHT22;8373;48.110;11.522;2022-11-20T13:30:21;8.50;77.20
16521;DHT22;8373;48.110;11.522;2022-11-20T13:32:50;8.60;78.10
16521;DHT22;8373;48.110;11.522;2022-11-20T13:35:26;8.50;78.20
16521;DHT22;8373;48.110;11.522;2022-11-20T13:38:02;8.50;78.60
16521;DHT22;8373;48.110;11.522;2022-11-20T13:40:29;8.50;79.10
16521;DHT22;8373;48.110;11.522;2022-11-20T13:43:11;8.60;79.20
16521;DHT22;8373;48.110;11.522;2022-11-20T13:45:41;8.60;79.10
16521;DHT22;8373;48.110;11.522;2022-11-20T13:48:20;8.50;78.50
16521;DHT22;8373;48.110;11.522;2022-11-20T13:50:55;8.50;78.40
16521;DHT22;8373;48.110;11.522;2022-11-20T13:53:37;8.60;78.50
16521;DHT22;8373;48.110;11.522;2022-11-20T13:56:17;8.70;78.50
16521;DHT22;8373;48.110;11.522;2022-11-20T13:58:58;8.80;78.10
16521;DHT22;8373;48.110;11.522;2022-11-20T14:01:29;8.70;77.20
16521;DHT22;8373;48.110;11.522;2022-11-20T14:03:57;8.70;76.90
16521;DHT22;8373;48.110;11.522;2022-11-20T14:06:27;8.70;77.00
16521;DHT22;8373;48.110;11.522;2022-11-20T14:08:56;8.60;76.60
16521;DHT22;8373;48.110;11.522;2022-11-20T14:11:24;8.60;77.20
16521;DHT22;8373;48.110;11.522;2022-11-20T14:13:59;8.70;77.00
16521;DHT22;8373;48.110;11.522;2022-11-20T14:16:29;8.80;77.10
16521;DHT22;8373;48.110;11.522;2022-11-20T14:18:57;8.80;76.50
16521;DHT22;8373;48.110;11.522;2022-11-20T14:21:25;9.00;76.60
16521;DHT22;8373;48.110;11.522;2022-11-20T14:23:54;9.10;76.10
16521;DHT22;8373;48.110;11.522;2022-11-20T14:26:21;9.10;75.70
16521;DHT22;8373;48.110;11.522;2022-11-20T14:28:49;9.20;75.30
16521;DHT22;8373;48.110;11.522;2022-11-20T14:31:23;9.20;74.90
16521;DHT22;8373;48.110;11.522;2022-11-20T14:33:52;9.20;74.90
16521;DHT22;8373;48.110;11.522;2022-11-20T14:36:21;9.20;74.60
16521;DHT22;8373;48.110;11.522;2022-11-20T14:38:49;9.20;74.00
16521;DHT22;8373;48.110;11.522;2022-11-20T14:41:19;9.10;74.60
16521;DHT22;8373;48.110;11.522;2022-11-20T14:43:50;9.00;74.20
16521;DHT22;8373;48.110;11.522;2022-11-20T14:46:18;8.90;74.20
16521;DHT22;8373;48.110;11.522;2022-11-20T14:48:49;8.80;74.10
16521;DHT22;8373;48.110;11.522;2022-11-20T14:51:30;8.70;73.60
16521;DHT22;8373;48.110;11.522;2022-11-20T14:54:08;8.70;73.80
16521;DHT22;8373;48.110;11.522;2022-11-20T14:56:36;8.70;73.50
16521;DHT22;8373;48.110;11.522;2022-11-20T14:59:03;8.70;73.30
16521;DHT22;8373;48.110;11.522;2022-11-20T15:01:31;8.70;72.80
16521;DHT22;8373;48.110;11.522;2022-11-20T15:04:06;8.70;73.00
16521;DHT22;8373;48.110;11.522;2022-11-20T15:06:34;8.80;73.10
16521;DHT22;8373;48.110;11.522;2022-11-20T15:09:03;8.70;72.60
16521;DHT22;8373;48.110;11.522;2022-11-20T15:11:34;8.70;72.60
16521;DHT22;8373;48.110;11.522;2022-11-20T15:14:03;8.70;72.70
16521;DHT22;8373;48.110;11.522;2022-11-20T15:16:31;8.70;72.60
16521;DHT22;8373;48.110;11.522;2022-11-20T15:18:58;8.70;73.00
16521;DHT22;8373;48.110;11.522;2022-11-20T15:21:28;8.80;73.00
16521;DHT22;8373;48.110;11.522;2022-11-20T15:23:57;8.70;72.90
16521;DHT22;8373;48.110;11.522;2022-11-20T15:26:27;8.70;73.00
16521;DHT22;8373;48.110;11.522;2022-11-20T15:28:54;8.70;73.20
16521;DHT22;8373;48.110;11.522;2022-11-20T15:31:22;8.70;73.10
16521;DHT22;8373;48.110;11.522;2022-11-20T15:33:50;8.80;73.30
16521;DHT22;8373;48.110;11.522;2022-11-20T15:36:17;8.80;73.10
16521;DHT22;8373;48.110;11.522;2022-11-20T15:38:46;8.80;73.20
16521;DHT22;8373;48.110;11.522;2022-11-20T15:41:13;8.90;73.20
16521;DHT22;8373;48.110;11.522;2022-11-20T15:43:40;8.80;72.70
16521;DHT22;8373;48.110;11.522;2022-11-20T15:46:10;8.80;72.70
16521;DHT22;8373;48.110;11.522;2022-11-20T15:48:40;8.70;72.60
16521;DHT22;8373;48.110;11.522;2022-11-20T15:51:15;8.70;72.70
16521;DHT22;8373;48.110;11.522;2022-11-20T15:53:46;8.60;73.10
16521;DHT22;8373;48.110;11.522;2022-11-20T15:56:14;8.60;73.30
16521;DHT22;8373;48.110;11.522;2022-11-20T15:58:41;8.60;73.50
16521;DHT22;8373;48.110;11.522;2022-11-20T16:01:10;8.50;73.40
16521;DHT22;8373;48.110;11.522;2022-11-20T16:03:38;8.40;73.80
16521;DHT22;8373;48.110;11.522;2022-11-20T16:06:05;8.40;74.10